sensor_id;sensor_type;location;lat;lon;timestamp;P1;durP1;ratioP1;P2;durP2;ratioP2
79249;SDS011;68679;51.030;7.584;2023-10-13T00:04:24;7.90;;;3.83;;
79249;SDS011;68679;51.030;7.584;2023-10-13T00:06:53;8.07;;;3.20;;
79249;SDS011;68679;51.030;7.584;2023-10-13T00:09:24;6.57;;;3.20;;
79249;SDS011;68679;51.030;7.584;2023-10-13T00:11:51;10.00;;;3.92;;
79249;SDS011;68679;51.030;7.584;2023-10-13T00:14:17;10.82;;;3.70;;
79249;SDS011;68679;51.030;7.584;2023-10-13T00:16:43;6.82;;;3.40;;
79249;SDS011;68679;51.030;7.584;2023-10-13T00:19:28;5.38;;;2.92;;
79249;SDS011;68679;51.030;7.584;2023-10-13T00:22:02;7.60;;;3.28;;
79249;SDS011;68679;51.030;7.584;2023-10-13T00:24:34;7.22;;;3.38;;
79249;SDS011;68679;51.030;7.584;2023-10-13T00:27:08;12.27;;;3.90;;
79249;SDS011;68679;51.030;7.584;2023-10-13T00:30:05;11.27;;;3.75;;
79249;SDS011;68679;51.030;7.584;2023-10-13T00:32:40;7.15;;;3.90;;
79249;SDS011;68679;51.030;7.584;2023-10-13T00:35:09;7.30;;;3.42;;
79249;SDS011;68679;51.030;7.584;2023-10-13T00:37:35;6.25;;;3.05;;
79249;SDS011;68679;51.030;7.584;2023-10-13T00:40:07;7.63;;;3.50;;
79249;SDS011;68679;51.030;7.584;2023-10-13T00:42:43;7.10;;;3.42;;
79249;SDS011;68679;51.030;7.584;2023-10-13T00:45:17;7.68;;;4.07;;
79249;SDS011;68679;51.030;7.584;2023-10-13T00:47:42;11.45;;;3.90;;
79249;SDS011;68679;51.030;7.584;2023-10-13T00:50:21;7.43;;;3.72;;
79249;SDS011;68679;51.030;7.584;2023-10-13T00:52:49;6.18;;;3.28;;
79249;SDS011;68679;51.030;7.584;2023-10-13T00:55:18;8.32;;;3.75;;
79249;SDS011;68679;51.030;7.584;2023-10-13T00:57:49;8.40;;;3.28;;
79249;SDS011;68679;51.030;7.584;2023-10-13T01:00:18;5.95;;;3.00;;
79249;SDS011;68679;51.030;7.584;2023-10-13T01:02:45;10.85;;;3.85;;
79249;SDS011;68679;51.030;7.584;2023-10-13T01:05:19;6.93;;;4.00;;
79249;SDS011;68679;51.030;7.584;2023-10-13T01:07:46;7.35;;;3.35;;
79249;SDS011;68679;51.030;7.584;2023-10-13T01:10:19;7.65;;;3.95;;
79249;SDS011;68679;51.030;7.584;2023-10-13T01:12:45;8.27;;;3.63;;
79249;SDS011;68679;51.030;7.584;2023-10-13T01:15:11;6.68;;;3.78;;
79249;SDS011;68679;51.030;7.584;2023-10-13T01:17:41;5.93;;;3.50;;
79249;SDS011;68679;51.030;7.584;2023-10-13T01:20:11;8.20;;;3.67;;
79249;SDS011;68679;51.030;7.584;2023-10-13T01:22:43;7.38;;;3.67;;
79249;SDS011;68679;51.030;7.584;2023-10-13T01:25:09;8.30;;;3.60;;
79249;SDS011;68679;51.030;7.584;2023-10-13T01:27:38;14.40;;;3.85;;
79249;SDS011;68679;51.030;7.584;2023-10-13T01:30:04;8.32;;;3.88;;
79249;SDS011;68679;51.030;7.584;2023-10-13T01:32:38;9.13;;;3.33;;
79249;SDS011;68679;51.030;7.584;2023-10-13T01:35:06;9.52;;;3.47;;
79249;SDS011;68679;51.030;7.584;2023-10-13T01:37:32;6.93;;;3.28;;
79249;SDS011;68679;51.030;7.584;2023-10-13T01:39:58;10.10;;;4.65;;
79249;SDS011;68679;51.030;7.584;2023-10-13T01:42:23;7.73;;;3.30;;
79249;SDS011;68679;51.030;7.584;2023-10-13T01:44:50;12.90;;;4.07;;
79249;SDS011;68679;51.030;7.584;2023-10-13T01:47:15;7.43;;;4.70;;
79249;SDS011;68679;51.030;7.584;2023-10-13T01:49:41;8.95;;;4.50;;
79249;SDS011;68679;51.030;7.584;2023-10-13T01:52:09;10.15;;;3.83;;
79249;SDS011;68679;51.030;7.584;2023-10-13T01:54:40;7.13;;;3.95;;
79249;SDS011;68679;51.030;7.584;2023-10-13T01:57:06;12.43;;;3.88;;
79249;SDS011;68679;51.030;7.584;2023-10-13T01:59:32;7.72;;;4.07;;
79249;SDS011;68679;51.030;7.584;2023-10-13T02:01:57;8.25;;;4.03;;
79249;SDS011;68679;51.030;7.584;2023-10-13T02:04:25;7.97;;;3.63;;
79249;SDS011;68679;51.030;7.584;2023-10-13T02:06:52;8.95;;;3.90;;
79249;SDS011;68679;51.030;7.584;2023-10-13T02:09:17;6.87;;;3.63;;
79249;SDS011;68679;51.030;7.584;2023-10-13T02:11:50;5.82;;;3.28;;
79249;SDS011;68679;51.030;7.584;2023-10-13T02:14:19;6.80;;;3.25;;
79249;SDS011;68679;51.030;7.584;2023-10-13T02:16:47;7.82;;;4.10;;
79249;SDS011;68679;51.030;7.584;2023-10-13T02:19:15;8.45;;;3.67;;
79249;SDS011;68679;51.030;7.584;2023-10-13T02:21:41;6.78;;;3.60;;
79249;SDS011;68679;51.030;7.584;2023-10-13T02:24:09;12.15;;;4.28;;
79249;SDS011;68679;51.030;7.584;2023-10-13T02:26:38;12.65;;;4.40;;
79249;SDS011;68679;51.030;7.584;2023-10-13T02:29:05;13.90;;;4.60;;
79249;SDS011;68679;51.030;7.584;2023-10-13T02:31:37;12.27;;;3.80;;
79249;SDS011;68679;51.030;7.584;2023-10-13T02:34:04;8.93;;;4.43;;
79249;SDS011;68679;51.030;7.584;2023-10-13T02:36:36;10.27;;;3.92;;
79249;SDS011;68679;51.030;7.584;2023-10-13T02:39:02;7.68;;;3.72;;
79249;SDS011;68679;51.030;7.584;2023-10-13T02:41:32;11.70;;;4.20;;
79249;SDS011;68679;51.030;7.584;2023-10-13T02:44:02;6.13;;;3.63;;
79249;SDS011;68679;51.030;7.584;2023-10-13T02:46:30;8.73;;;3.97;;
79249;SDS011;68679;51.030;7.584;2023-10-13T02:48:57;11.27;;;4.07;;
79249;SDS011;68679;51.030;7.584;2023-10-13T02:51:23;6.88;;;4.05;;
79249;SDS011;68679;51.030;7.584;2023-10-13T02:54:00;10.48;;;4.32;;
79249;SDS011;68679;51.030;7.584;2023-10-13T02:56:28;7.55;;;4.43;;
79249;SDS011;68679;51.030;7.584;2023-10-13T02:58:54;7.63;;;4.25;;
79249;SDS011;68679;51.030;7.584;2023-10-13T03:01:21;8.40;;;4.50;;
79249;SDS011;68679;51.030;7.584;2023-10-13T03:03:53;7.70;;;4.38;;
79249;SDS011;68679;51.030;7.584;2023-10-13T03:06:20;9.85;;;4.43;;
79249;SDS011;68679;51.030;7.584;2023-10-13T03:08:48;12.77;;;5.03;;
79249;SDS011;68679;51.030;7.584;2023-10-13T03:11:14;12.65;;;4.80;;
79249;SDS011;68679;51.030;7.584;2023-10-13T03:13:42;8.60;;;4.43;;
79249;SDS011;68679;51.030;7.584;2023-10-13T03:16:13;11.18;;;4.90;;
79249;SDS011;68679;51.030;7.584;2023-10-13T03:18:41;13.35;;;5.78;;
79249;SDS011;68679;51.030;7.584;2023-10-13T03:21:17;11.60;;;5.15;;
79249;SDS011;68679;51.030;7.584;2023-10-13T03:23:56;10.30;;;5.07;;
79249;SDS011;68679;51.030;7.584;2023-10-13T03:26:28;8.48;;;4.60;;
79249;SDS011;68679;51.030;7.584;2023-10-13T03:28:54;8.47;;;5.60;;
79249;SDS011;68679;51.030;7.584;2023-10-13T03:31:22;7.95;;;4.22;;
79249;SDS011;68679;51.030;7.584;2023-10-13T03:33:53;12.10;;;5.45;;
79249;SDS011;68679;51.030;7.584;2023-10-13T03:36:25;9.70;;;4.90;;
79249;SDS011;68679;51.030;7.584;2023-10-13T03:39:10;13.93;;;6.25;;
79249;SDS011;68679;51.030;7.584;2023-10-13T03:41:36;10.93;;;6.10;;
79249;SDS011;68679;51.030;7.584;2023-10-13T03:44:03;11.38;;;5.03;;
79249;SDS011;68679;51.030;7.584;2023-10-13T03:46:42;10.27;;;5.60;;
79249;SDS011;68679;51.030;7.584;2023-10-13T03:49:08;13.77;;;5.38;;
79249;SDS011;68679;51.030;7.584;2023-10-13T03:51:38;13.68;;;5.63;;
79249;SDS011;68679;51.030;7.584;2023-10-13T03:54:04;13.13;;;5.68;;
79249;SDS011;68679;51.030;7.584;2023-10-13T03:56:32;16.65;;;6.55;;
79249;SDS011;68679;51.030;7.584;2023-10-13T03:59:04;13.95;;;6.10;;
79249;SDS011;68679;51.030;7.584;2023-10-13T04:01:31;11.10;;;5.75;;
79249;SDS011;68679;51.030;7.584;2023-10-13T04:04:00;13.93;;;5.85;;
79249;SDS011;68679;51.030;7.584;2023-10-13T04:06:32;11.88;;;5.22;;
79249;SDS011;68679;51.030;7.584;2023-10-13T04:09:17;11.63;;;5.85;;
79249;SDS011;68679;51.030;7.584;2023-10-13T04:11:58;9.77;;;5.32;;
79249;SDS011;68679;51.030;7.584;2023-10-13T04:14:28;17.55;;;6.65;;
79249;SDS011;68679;51.030;7.584;2023-10-13T04:17:15;9.98;;;5.85;;
79249;SDS011;68679;51.030;7.584;2023-10-13T04:19:47;10.40;;;5.72;;
79249;SDS011;68679;51.030;7.584;2023-10-13T04:22:34;15.07;;;5.43;;
79249;SDS011;68679;51.030;7.584;2023-10-13T04:25:23;12.00;;;5.13;;
79249;SDS011;68679;51.030;7.584;2023-10-13T04:33:18;21.67;;;7.65;;
79249;SDS011;68679;51.030;7.584;2023-10-13T04:36:12;11.30;;;5.53;;
79249;SDS011;68679;51.030;7.584;2023-10-13T04:38:44;12.10;;;6.07;;
79249;SDS011;68679;51.030;7.584;2023-10-13T04:41:26;11.50;;;6.32;;
79249;SDS011;68679;51.030;7.584;2023-10-13T04:43:57;18.20;;;6.18;;
79249;SDS011;68679;51.030;7.584;2023-10-13T04:46:30;10.18;;;5.97;;
79249;SDS011;68679;51.030;7.584;2023-10-13T04:49:11;13.48;;;5.30;;
79249;SDS011;68679;51.030;7.584;2023-10-13T04:51:53;16.45;;;5.78;;
79249;SDS011;68679;51.030;7.584;2023-10-13T04:54:27;14.52;;;5.72;;
79249;SDS011;68679;51.030;7.584;2023-10-13T04:57:14;13.38;;;6.15;;
79249;SDS011;68679;51.030;7.584;2023-10-13T04:59:49;15.05;;;5.55;;
79249;SDS011;68679;51.030;7.584;2023-10-13T05:02:33;11.13;;;5.25;;
79249;SDS011;68679;51.030;7.584;2023-10-13T05:05:02;13.07;;;5.28;;
79249;SDS011;68679;51.030;7.584;2023-10-13T05:07:50;16.05;;;7.03;;
79249;SDS011;68679;51.030;7.584;2023-10-13T05:10:35;11.20;;;5.93;;
79249;SDS011;68679;51.030;7.584;2023-10-13T05:13:20;12.18;;;6.07;;
79249;SDS011;68679;51.030;7.584;2023-10-13T05:16:04;10.00;;;5.47;;
79249;SDS011;68679;51.030;7.584;2023-10-13T05:18:48;12.52;;;6.00;;
79249;SDS011;68679;51.030;7.584;2023-10-13T05:21:32;11.50;;;6.03;;
79249;SDS011;68679;51.030;7.584;2023-10-13T05:24:16;10.90;;;5.78;;
79249;SDS011;68679;51.030;7.584;2023-10-13T05:27:00;13.73;;;5.93;;
79249;SDS011;68679;51.030;7.584;2023-10-13T05:29:45;15.73;;;5.72;;
79249;SDS011;68679;51.030;7.584;2023-10-13T05:32:29;14.85;;;5.43;;
79249;SDS011;68679;51.030;7.584;2023-10-13T05:35:13;15.98;;;7.03;;
79249;SDS011;68679;51.030;7.584;2023-10-13T05:37:58;11.45;;;5.65;;
79249;SDS011;68679;51.030;7.584;2023-10-13T05:40:58;16.23;;;5.13;;
79249;SDS011;68679;51.030;7.584;2023-10-13T05:43:44;16.27;;;6.03;;
79249;SDS011;68679;51.030;7.584;2023-10-13T05:46:28;12.68;;;5.32;;
79249;SDS011;68679;51.030;7.584;2023-10-13T05:49:03;12.20;;;5.93;;
79249;SDS011;68679;51.030;7.584;2023-10-13T05:51:35;11.27;;;6.20;;
79249;SDS011;68679;51.030;7.584;2023-10-13T05:54:01;15.67;;;6.83;;
79249;SDS011;68679;51.030;7.584;2023-10-13T05:56:43;13.13;;;5.85;;
79249;SDS011;68679;51.030;7.584;2023-10-13T05:59:29;13.30;;;5.63;;
79249;SDS011;68679;51.030;7.584;2023-10-13T06:02:15;10.07;;;5.45;;
79249;SDS011;68679;51.030;7.584;2023-10-13T06:05:03;16.75;;;6.57;;
79249;SDS011;68679;51.030;7.584;2023-10-13T06:07:48;12.68;;;5.47;;
79249;SDS011;68679;51.030;7.584;2023-10-13T06:10:32;15.05;;;6.53;;
79249;SDS011;68679;51.030;7.584;2023-10-13T06:13:15;17.67;;;5.63;;
79249;SDS011;68679;51.030;7.584;2023-10-13T06:15:59;13.38;;;5.72;;
79249;SDS011;68679;51.030;7.584;2023-10-13T06:18:43;20.48;;;6.13;;
79249;SDS011;68679;51.030;7.584;2023-10-13T06:21:28;12.65;;;4.90;;
79249;SDS011;68679;51.030;7.584;2023-10-13T06:24:11;10.52;;;4.90;;
79249;SDS011;68679;51.030;7.584;2023-10-13T06:26:55;13.35;;;6.18;;
79249;SDS011;68679;51.030;7.584;2023-10-13T06:29:39;13.13;;;6.18;;
79249;SDS011;68679;51.030;7.584;2023-10-13T06:32:05;15.00;;;5.10;;
79249;SDS011;68679;51.030;7.584;2023-10-13T06:37:10;14.88;;;5.90;;
79249;SDS011;68679;51.030;7.584;2023-10-13T06:40:11;11.88;;;5.40;;
79249;SDS011;68679;51.030;7.584;2023-10-13T06:42:58;9.90;;;5.03;;
79249;SDS011;68679;51.030;7.584;2023-10-13T06:45:37;9.23;;;4.68;;
79249;SDS011;68679;51.030;7.584;2023-10-13T06:48:03;12.95;;;6.90;;
79249;SDS011;68679;51.030;7.584;2023-10-13T06:50:29;11.50;;;5.18;;
79249;SDS011;68679;51.030;7.584;2023-10-13T06:53:03;12.30;;;5.30;;
79249;SDS011;68679;51.030;7.584;2023-10-13T06:55:28;14.60;;;5.40;;
79249;SDS011;68679;51.030;7.584;2023-10-13T06:57:59;9.98;;;4.78;;
79249;SDS011;68679;51.030;7.584;2023-10-13T07:00:25;11.43;;;4.43;;
79249;SDS011;68679;51.030;7.584;2023-10-13T07:03:00;10.15;;;5.78;;
79249;SDS011;68679;51.030;7.584;2023-10-13T07:05:38;14.15;;;5.45;;
79249;SDS011;68679;51.030;7.584;2023-10-13T07:08:07;10.52;;;4.80;;
79249;SDS011;68679;51.030;7.584;2023-10-13T07:10:33;12.25;;;5.22;;
79249;SDS011;68679;51.030;7.584;2023-10-13T07:13:13;12.00;;;5.18;;
79249;SDS011;68679;51.030;7.584;2023-10-13T07:15:39;12.90;;;5.20;;
79249;SDS011;68679;51.030;7.584;2023-10-13T07:18:11;16.00;;;5.38;;
79249;SDS011;68679;51.030;7.584;2023-10-13T07:20:39;10.35;;;5.13;;
79249;SDS011;68679;51.030;7.584;2023-10-13T07:23:09;11.45;;;5.13;;
79249;SDS011;68679;51.030;7.584;2023-10-13T07:25:42;15.80;;;5.35;;
79249;SDS011;68679;51.030;7.584;2023-10-13T07:28:19;11.18;;;5.53;;
79249;SDS011;68679;51.030;7.584;2023-10-13T07:30:45;13.82;;;5.38;;
79249;SDS011;68679;51.030;7.584;2023-10-13T07:33:36;13.95;;;4.95;;
79249;SDS011;68679;51.030;7.584;2023-10-13T07:36:02;15.10;;;5.30;;
79249;SDS011;68679;51.030;7.584;2023-10-13T07:38:53;10.15;;;5.78;;
79249;SDS011;68679;51.030;7.584;2023-10-13T07:41:35;13.57;;;4.75;;
79249;SDS011;68679;51.030;7.584;2023-10-13T07:44:01;13.20;;;5.88;;
79249;SDS011;68679;51.030;7.584;2023-10-13T07:46:29;12.02;;;4.78;;
79249;SDS011;68679;51.030;7.584;2023-10-13T07:48:58;18.50;;;5.18;;
79249;SDS011;68679;51.030;7.584;2023-10-13T07:51:41;10.98;;;4.82;;
79249;SDS011;68679;51.030;7.584;2023-10-13T07:54:10;16.98;;;5.93;;
79249;SDS011;68679;51.030;7.584;2023-10-13T07:56:39;17.15;;;5.38;;
79249;SDS011;68679;51.030;7.584;2023-10-13T07:59:05;14.73;;;6.07;;
79249;SDS011;68679;51.030;7.584;2023-10-13T08:01:34;14.52;;;5.88;;
79249;SDS011;68679;51.030;7.584;2023-10-13T08:03:59;10.45;;;5.03;;
79249;SDS011;68679;51.030;7.584;2023-10-13T08:06:36;15.82;;;5.32;;
79249;SDS011;68679;51.030;7.584;2023-10-13T08:09:02;11.27;;;4.70;;
79249;SDS011;68679;51.030;7.584;2023-10-13T08:11:48;13.93;;;5.40;;
79249;SDS011;68679;51.030;7.584;2023-10-13T08:14:17;12.18;;;5.30;;
79249;SDS011;68679;51.030;7.584;2023-10-13T08:16:58;17.25;;;5.50;;
79249;SDS011;68679;51.030;7.584;2023-10-13T08:19:29;12.98;;;4.78;;
79249;SDS011;68679;51.030;7.584;2023-10-13T08:22:23;13.65;;;4.60;;
79249;SDS011;68679;51.030;7.584;2023-10-13T08:24:50;15.07;;;5.47;;
79249;SDS011;68679;51.030;7.584;2023-10-13T08:27:19;14.52;;;5.30;;
79249;SDS011;68679;51.030;7.584;2023-10-13T08:29:57;12.98;;;5.50;;
79249;SDS011;68679;51.030;7.584;2023-10-13T08:32:29;11.03;;;5.23;;
79249;SDS011;68679;51.030;7.584;2023-10-13T08:34:59;12.15;;;5.10;;
79249;SDS011;68679;51.030;7.584;2023-10-13T08:37:28;11.75;;;4.80;;
79249;SDS011;68679;51.030;7.584;2023-10-13T08:39:58;12.05;;;4.82;;
79249;SDS011;68679;51.030;7.584;2023-10-13T08:42:37;17.42;;;5.93;;
79249;SDS011;68679;51.030;7.584;2023-10-13T08:45:10;17.58;;;5.18;;
79249;SDS011;68679;51.030;7.584;2023-10-13T08:47:56;9.63;;;4.53;;
79249;SDS011;68679;51.030;7.584;2023-10-13T08:50:43;11.63;;;4.80;;
79249;SDS011;68679;51.030;7.584;2023-10-13T08:53:34;16.90;;;5.28;;
79249;SDS011;68679;51.030;7.584;2023-10-13T08:56:09;11.32;;;5.18;;
79249;SDS011;68679;51.030;7.584;2023-10-13T08:58:39;13.75;;;4.20;;
79249;SDS011;68679;51.030;7.584;2023-10-13T09:01:27;13.05;;;4.85;;
79249;SDS011;68679;51.030;7.584;2023-10-13T09:04:16;11.27;;;4.35;;
79249;SDS011;68679;51.030;7.584;2023-10-13T09:06:43;13.70;;;4.55;;
79249;SDS011;68679;51.030;7.584;2023-10-13T09:12:26;12.75;;;5.28;;
79249;SDS011;68679;51.030;7.584;2023-10-13T09:14:59;11.95;;;4.57;;
79249;SDS011;68679;51.030;7.584;2023-10-13T09:17:31;8.13;;;3.88;;
79249;SDS011;68679;51.030;7.584;2023-10-13T09:22:52;10.68;;;5.22;;
79249;SDS011;68679;51.030;7.584;2023-10-13T09:25:29;11.55;;;4.28;;
79249;SDS011;68679;51.030;7.584;2023-10-13T09:27:59;8.90;;;4.22;;
79249;SDS011;68679;51.030;7.584;2023-10-13T09:30:25;10.40;;;4.35;;
79249;SDS011;68679;51.030;7.584;2023-10-13T09:33:00;10.50;;;4.80;;
79249;SDS011;68679;51.030;7.584;2023-10-13T09:35:26;9.45;;;4.45;;
79249;SDS011;68679;51.030;7.584;2023-10-13T09:37:52;8.68;;;4.07;;
79249;SDS011;68679;51.030;7.584;2023-10-13T09:40:21;9.10;;;3.83;;
79249;SDS011;68679;51.030;7.584;2023-10-13T09:42:53;15.10;;;4.28;;
79249;SDS011;68679;51.030;7.584;2023-10-13T09:45:29;11.05;;;3.72;;
79249;SDS011;68679;51.030;7.584;2023-10-13T09:50:37;16.13;;;3.72;;
79249;SDS011;68679;51.030;7.584;2023-10-13T09:53:09;8.98;;;4.03;;
79249;SDS011;68679;51.030;7.584;2023-10-13T09:55:40;8.95;;;4.00;;
79249;SDS011;68679;51.030;7.584;2023-10-13T09:58:10;11.05;;;4.18;;
79249;SDS011;68679;51.030;7.584;2023-10-13T10:00:41;9.15;;;4.07;;
79249;SDS011;68679;51.030;7.584;2023-10-13T10:03:11;9.38;;;3.38;;
79249;SDS011;68679;51.030;7.584;2023-10-13T10:05:43;11.60;;;4.40;;
79249;SDS011;68679;51.030;7.584;2023-10-13T10:08:28;11.20;;;3.42;;
79249;SDS011;68679;51.030;7.584;2023-10-13T10:11:00;12.50;;;3.60;;
79249;SDS011;68679;51.030;7.584;2023-10-13T10:16:30;7.32;;;3.00;;
79249;SDS011;68679;51.030;7.584;2023-10-13T10:19:06;12.65;;;4.95;;
79249;SDS011;68679;51.030;7.584;2023-10-13T10:21:35;10.60;;;4.00;;
79249;SDS011;68679;51.030;7.584;2023-10-13T10:24:01;8.95;;;3.75;;
79249;SDS011;68679;51.030;7.584;2023-10-13T10:26:32;8.05;;;3.80;;
79249;SDS011;68679;51.030;7.584;2023-10-13T10:28:58;8.43;;;4.30;;
79249;SDS011;68679;51.030;7.584;2023-10-13T10:31:31;8.88;;;4.50;;
79249;SDS011;68679;51.030;7.584;2023-10-13T10:34:10;11.20;;;4.78;;
79249;SDS011;68679;51.030;7.584;2023-10-13T10:36:36;7.90;;;4.10;;
79249;SDS011;68679;51.030;7.584;2023-10-13T10:39:02;14.55;;;4.78;;
79249;SDS011;68679;51.030;7.584;2023-10-13T10:41:30;9.52;;;3.75;;
79249;SDS011;68679;51.030;7.584;2023-10-13T10:44:10;13.15;;;4.45;;
79249;SDS011;68679;51.030;7.584;2023-10-13T10:46:41;10.23;;;3.40;;
79249;SDS011;68679;51.030;7.584;2023-10-13T10:49:16;6.50;;;3.42;;
79249;SDS011;68679;51.030;7.584;2023-10-13T10:51:52;7.65;;;3.97;;
79249;SDS011;68679;51.030;7.584;2023-10-13T10:54:29;11.57;;;4.47;;
79249;SDS011;68679;51.030;7.584;2023-10-13T10:56:58;11.80;;;4.43;;
79249;SDS011;68679;51.030;7.584;2023-10-13T10:59:35;9.82;;;4.72;;
79249;SDS011;68679;51.030;7.584;2023-10-13T11:02:02;14.60;;;4.30;;
79249;SDS011;68679;51.030;7.584;2023-10-13T11:04:28;8.48;;;3.90;;
79249;SDS011;68679;51.030;7.584;2023-10-13T11:06:59;12.02;;;3.80;;
79249;SDS011;68679;51.030;7.584;2023-10-13T11:09:25;11.35;;;4.70;;
79249;SDS011;68679;51.030;7.584;2023-10-13T11:14:48;13.25;;;4.35;;
79249;SDS011;68679;51.030;7.584;2023-10-13T11:17:25;6.82;;;3.75;;
79249;SDS011;68679;51.030;7.584;2023-10-13T11:19:51;7.40;;;3.53;;
79249;SDS011;68679;51.030;7.584;2023-10-13T11:22:18;10.00;;;4.05;;
79249;SDS011;68679;51.030;7.584;2023-10-13T11:25:22;8.40;;;4.13;;
79249;SDS011;68679;51.030;7.584;2023-10-13T11:27:57;9.38;;;4.70;;
79249;SDS011;68679;51.030;7.584;2023-10-13T11:30:24;10.25;;;4.30;;
79249;SDS011;68679;51.030;7.584;2023-10-13T11:32:59;8.68;;;3.85;;
79249;SDS011;68679;51.030;7.584;2023-10-13T11:35:31;7.15;;;4.22;;
79249;SDS011;68679;51.030;7.584;2023-10-13T11:38:21;9.60;;;3.97;;
79249;SDS011;68679;51.030;7.584;2023-10-13T11:43:32;10.10;;;3.88;;
79249;SDS011;68679;51.030;7.584;2023-10-13T11:46:10;8.13;;;3.95;;
79249;SDS011;68679;51.030;7.584;2023-10-13T11:48:41;13.77;;;4.00;;
79249;SDS011;68679;51.030;7.584;2023-10-13T11:51:08;7.57;;;3.92;;
79249;SDS011;68679;51.030;7.584;2023-10-13T11:53:35;9.35;;;3.47;;
79249;SDS011;68679;51.030;7.584;2023-10-13T11:56:04;8.70;;;3.88;;
79249;SDS011;68679;51.030;7.584;2023-10-13T11:58:38;7.93;;;4.10;;
79249;SDS011;68679;51.030;7.584;2023-10-13T12:01:05;9.70;;;3.80;;
79249;SDS011;68679;51.030;7.584;2023-10-13T12:03:40;8.77;;;4.15;;
79249;SDS011;68679;51.030;7.584;2023-10-13T12:06:24;8.50;;;3.53;;
79249;SDS011;68679;51.030;7.584;2023-10-13T12:09:03;8.50;;;3.97;;
79249;SDS011;68679;51.030;7.584;2023-10-13T12:11:41;9.35;;;3.92;;
79249;SDS011;68679;51.030;7.584;2023-10-13T12:14:14;13.38;;;3.67;;
79249;SDS011;68679;51.030;7.584;2023-10-13T12:16:44;12.70;;;4.03;;
79249;SDS011;68679;51.030;7.584;2023-10-13T12:19:17;7.82;;;4.32;;
79249;SDS011;68679;51.030;7.584;2023-10-13T12:21:45;8.52;;;4.47;;
79249;SDS011;68679;51.030;7.584;2023-10-13T12:24:13;12.98;;;4.38;;
79249;SDS011;68679;51.030;7.584;2023-10-13T12:26:48;9.05;;;3.88;;
79249;SDS011;68679;51.030;7.584;2023-10-13T12:29:20;8.30;;;3.75;;
79249;SDS011;68679;51.030;7.584;2023-10-13T12:31:48;9.13;;;3.72;;
79249;SDS011;68679;51.030;7.584;2023-10-13T12:34:26;11.73;;;4.47;;
79249;SDS011;68679;51.030;7.584;2023-10-13T12:37:12;10.40;;;3.55;;
79249;SDS011;68679;51.030;7.584;2023-10-13T12:39:57;9.55;;;4.22;;
79249;SDS011;68679;51.030;7.584;2023-10-13T12:42:41;10.95;;;3.92;;
79249;SDS011;68679;51.030;7.584;2023-10-13T12:45:25;11.60;;;4.28;;
79249;SDS011;68679;51.030;7.584;2023-10-13T12:48:09;8.88;;;3.80;;
79249;SDS011;68679;51.030;7.584;2023-10-13T12:50:56;8.63;;;3.58;;
79249;SDS011;68679;51.030;7.584;2023-10-13T12:53:33;10.57;;;3.78;;
79249;SDS011;68679;51.030;7.584;2023-10-13T12:55:58;6.55;;;3.03;;
79249;SDS011;68679;51.030;7.584;2023-10-13T12:58:24;11.52;;;3.70;;
79249;SDS011;68679;51.030;7.584;2023-10-13T13:00:52;9.98;;;3.35;;
79249;SDS011;68679;51.030;7.584;2023-10-13T13:03:24;9.82;;;3.72;;
79249;SDS011;68679;51.030;7.584;2023-10-13T13:05:54;12.07;;;3.55;;
79249;SDS011;68679;51.030;7.584;2023-10-13T13:08:20;8.93;;;3.90;;
79249;SDS011;68679;51.030;7.584;2023-10-13T13:10:47;7.05;;;3.97;;
79249;SDS011;68679;51.030;7.584;2023-10-13T13:13:13;6.80;;;3.22;;
79249;SDS011;68679;51.030;7.584;2023-10-13T13:15:41;12.25;;;4.18;;
79249;SDS011;68679;51.030;7.584;2023-10-13T13:18:07;9.60;;;3.95;;
79249;SDS011;68679;51.030;7.584;2023-10-13T13:20:36;11.98;;;3.65;;
79249;SDS011;68679;51.030;7.584;2023-10-13T13:23:04;7.07;;;3.03;;
79249;SDS011;68679;51.030;7.584;2023-10-13T13:25:30;7.68;;;3.38;;
79249;SDS011;68679;51.030;7.584;2023-10-13T13:27:56;7.53;;;3.55;;
79249;SDS011;68679;51.030;7.584;2023-10-13T13:30:24;9.57;;;3.55;;
79249;SDS011;68679;51.030;7.584;2023-10-13T13:32:56;11.15;;;3.40;;
79249;SDS011;68679;51.030;7.584;2023-10-13T13:35:24;6.93;;;3.50;;
79249;SDS011;68679;51.030;7.584;2023-10-13T13:37:58;7.63;;;3.60;;
79249;SDS011;68679;51.030;7.584;2023-10-13T13:40:31;7.03;;;3.05;;
79249;SDS011;68679;51.030;7.584;2023-10-13T13:43:00;5.65;;;3.22;;
79249;SDS011;68679;51.030;7.584;2023-10-13T13:45:26;11.65;;;4.05;;
79249;SDS011;68679;51.030;7.584;2023-10-13T13:47:54;8.10;;;3.15;;
79249;SDS011;68679;51.030;7.584;2023-10-13T13:50:23;7.32;;;3.17;;
79249;SDS011;68679;51.030;7.584;2023-10-13T13:52:53;7.95;;;3.65;;
79249;SDS011;68679;51.030;7.584;2023-10-13T13:55:21;11.55;;;4.28;;
79249;SDS011;68679;51.030;7.584;2023-10-13T13:57:47;15.68;;;4.20;;
79249;SDS011;68679;51.030;7.584;2023-10-13T14:00:15;6.88;;;3.28;;
79249;SDS011;68679;51.030;7.584;2023-10-13T14:02:59;7.65;;;3.88;;
79249;SDS011;68679;51.030;7.584;2023-10-13T14:05:25;9.38;;;3.25;;
79249;SDS011;68679;51.030;7.584;2023-10-13T14:07:53;8.32;;;3.17;;
79249;SDS011;68679;51.030;7.584;2023-10-13T14:10:20;9.13;;;3.60;;
79249;SDS011;68679;51.030;7.584;2023-10-13T14:13:01;7.03;;;3.30;;
79249;SDS011;68679;51.030;7.584;2023-10-13T14:15:38;10.20;;;3.85;;
79249;SDS011;68679;51.030;7.584;2023-10-13T14:18:08;9.30;;;3.53;;
79249;SDS011;68679;51.030;7.584;2023-10-13T14:20:39;9.52;;;4.00;;
79249;SDS011;68679;51.030;7.584;2023-10-13T14:23:06;8.43;;;3.35;;
79249;SDS011;68679;51.030;7.584;2023-10-13T14:25:34;6.65;;;3.58;;
79249;SDS011;68679;51.030;7.584;2023-10-13T14:28:03;6.47;;;2.88;;
79249;SDS011;68679;51.030;7.584;2023-10-13T14:32:57;7.47;;;3.53;;
79249;SDS011;68679;51.030;7.584;2023-10-13T14:35:26;8.40;;;3.47;;
79249;SDS011;68679;51.030;7.584;2023-10-13T14:37:54;10.15;;;2.85;;
79249;SDS011;68679;51.030;7.584;2023-10-13T14:40:19;9.02;;;3.28;;
79249;SDS011;68679;51.030;7.584;2023-10-13T14:42:48;6.55;;;2.97;;
79249;SDS011;68679;51.030;7.584;2023-10-13T14:45:13;7.53;;;3.90;;
79249;SDS011;68679;51.030;7.584;2023-10-13T14:47:41;6.28;;;3.15;;
79249;SDS011;68679;51.030;7.584;2023-10-13T14:50:07;7.63;;;2.80;;
79249;SDS011;68679;51.030;7.584;2023-10-13T14:52:39;15.98;;;3.05;;
79249;SDS011;68679;51.030;7.584;2023-10-13T14:55:04;10.13;;;3.22;;
79249;SDS011;68679;51.030;7.584;2023-10-13T14:57:32;7.55;;;3.78;;
79249;SDS011;68679;51.030;7.584;2023-10-13T15:00:02;8.45;;;4.05;;
79249;SDS011;68679;51.030;7.584;2023-10-13T15:02:28;9.68;;;3.83;;
79249;SDS011;68679;51.030;7.584;2023-10-13T15:04:53;7.67;;;3.33;;
79249;SDS011;68679;51.030;7.584;2023-10-13T15:07:18;7.40;;;3.13;;
79249;SDS011;68679;51.030;7.584;2023-10-13T15:09:45;7.68;;;3.88;;
79249;SDS011;68679;51.030;7.584;2023-10-13T15:12:10;8.03;;;4.00;;
79249;SDS011;68679;51.030;7.584;2023-10-13T15:14:39;8.50;;;2.75;;
79249;SDS011;68679;51.030;7.584;2023-10-13T15:17:07;7.95;;;3.60;;
79249;SDS011;68679;51.030;7.584;2023-10-13T15:19:36;7.55;;;4.00;;
79249;SDS011;68679;51.030;7.584;2023-10-13T15:22:03;11.13;;;3.53;;
79249;SDS011;68679;51.030;7.584;2023-10-13T15:24:31;8.75;;;3.65;;
79249;SDS011;68679;51.030;7.584;2023-10-13T15:27:10;5.68;;;2.92;;
79249;SDS011;68679;51.030;7.584;2023-10-13T15:29:35;9.68;;;3.13;;
79249;SDS011;68679;51.030;7.584;2023-10-13T15:32:01;8.98;;;3.65;;
79249;SDS011;68679;51.030;7.584;2023-10-13T15:34:29;11.55;;;2.78;;
79249;SDS011;68679;51.030;7.584;2023-10-13T15:36:55;8.35;;;3.63;;
79249;SDS011;68679;51.030;7.584;2023-10-13T15:39:22;7.40;;;3.67;;
79249;SDS011;68679;51.030;7.584;2023-10-13T15:41:56;7.05;;;3.13;;
79249;SDS011;68679;51.030;7.584;2023-10-13T15:44:25;6.85;;;3.47;;